KMWO/MWO METAR and TAF weather

Enter ICAO airport designator
Station Type Date Time Source
KMWO METAR 2020/04/05 13:35 UTC NOAA

KMWO 051335Z AUTO 01006KT 10SM OVC008 09/08 A3012 RMK AO2 T00880078


Station Type Date Time Source
KMWO Decoded METAR 2020/04/05 13:35 UTC NOAA

Station name not available
Apr 05, 2020 - 09:35 AM EDT / 2020.04.05 1335 UTC
Wind: from the N (010 degrees) at 7 MPH (6 KT):0
Visibility: 10 mile(s):0
Sky conditions: overcast
Temperature: 47.8 F (8.8 C)
Dew Point: 46.0 F (7.8 C)
Relative Humidity: 93%
Pressure (altimeter): 30.12 in. Hg (1019 hPa)
ob: KMWO 051335Z AUTO 01006KT 10SM OVC008 09/08 A3012 RMK AO2 T00880078
cycle: 13

Station Type Date Time Source
KMWO TAF UTC NOAA

Error!

Example: see airport list